createdAt,value
2023-01-17T00:02:02.588Z,98025.78
2023-01-17T00:04:48.114Z,98034.00
2023-01-17T00:07:35.191Z,98032.31
2023-01-17T00:10:07.308Z,98037.66
2023-01-17T00:12:35.824Z,98034.91
2023-01-17T00:15:04.214Z,98044.38
2023-01-17T00:17:32.033Z,98039.94
2023-01-17T00:20:19.316Z,98043.34
2023-01-17T00:23:05.421Z,98053.06
2023-01-17T00:25:55.519Z,98050.53
2023-01-17T00:28:22.449Z,98051.31
2023-01-17T00:30:49.173Z,98054.31
2023-01-17T00:33:15.897Z,98060.38
2023-01-17T00:35:42.499Z,98059.38
2023-01-17T00:38:11.730Z,98062.13
2023-01-17T00:40:41.509Z,98060.31
2023-01-17T00:43:28.266Z,98065.66
2023-01-17T00:46:14.167Z,98075.41
2023-01-17T00:49:00.548Z,98086.28
2023-01-17T00:51:46.771Z,98092.50
2023-01-17T00:54:32.576Z,98101.53
2023-01-17T00:57:19.998Z,98109.47
2023-01-17T01:00:05.950Z,98117.44
2023-01-17T01:02:52.273Z,98129.66
2023-01-17T01:05:38.279Z,98133.53
2023-01-17T01:08:34.683Z,98134.41
2023-01-17T01:11:22.855Z,98139.81
2023-01-17T01:14:09.453Z,98141.94
2023-01-17T01:16:54.597Z,98147.25
2023-01-17T01:19:40.177Z,98156.84
2023-01-17T01:22:25.237Z,98150.94
2023-01-17T01:25:10.733Z,98155.47
2023-01-17T01:27:56.088Z,98159.72
2023-01-17T01:30:42.464Z,98162.31
2023-01-17T01:33:19.312Z,98158.56
2023-01-17T01:35:49.515Z,98184.94
2023-01-17T01:38:17.713Z,98194.53
2023-01-17T01:40:47.907Z,98192.72
2023-01-17T01:43:17.415Z,98195.44
2023-01-17T01:45:52.593Z,98218.94
2023-01-17T01:48:36.268Z,98223.63
2023-01-17T01:51:07.259Z,98217.66
2023-01-17T01:53:39.679Z,98215.84
2023-01-17T01:56:09.049Z,98219.56
2023-01-17T01:58:37.943Z,98220.50
2023-01-17T02:01:09.333Z,98223.09
2023-01-17T02:03:41.164Z,98232.91
2023-01-17T02:06:25.533Z,98247.03
2023-01-17T02:08:53.372Z,98254.63
2023-01-17T02:11:21.749Z,98267.94
2023-01-17T02:13:49.392Z,98260.28
2023-01-17T02:16:33.287Z,98279.97
2023-01-17T02:19:16.713Z,98286.50
2023-01-17T02:21:58.744Z,98291.06
2023-01-17T02:24:59.404Z,98305.38
2023-01-17T02:27:29.942Z,98306.63
2023-01-17T02:33:03.187Z,98313.66
2023-01-17T02:35:41.343Z,98316.34
2023-01-17T02:38:20.536Z,98329.53
2023-01-17T02:40:50.861Z,98333.97
2023-01-17T02:43:21.586Z,98332.19
2023-01-17T02:45:49.332Z,98343.66
2023-01-17T02:48:22.264Z,98327.88
2023-01-17T02:51:05.391Z,98340.22
2023-01-17T02:53:44.839Z,98342.78
2023-01-17T02:56:23.094Z,98340.16
2023-01-17T02:59:06.954Z,98351.56
2023-01-17T03:01:44.532Z,98357.75
2023-01-17T03:04:16.409Z,98357.63
2023-01-17T03:06:49.009Z,98361.06
2023-01-17T03:09:18.351Z,98354.00
2023-01-17T03:11:46.605Z,98363.56
2023-01-17T03:14:14.274Z,98367.09
2023-01-17T03:16:42.449Z,98367.09
2023-01-17T03:19:10.261Z,98368.84
2023-01-17T03:21:39.360Z,98374.03
2023-01-17T03:24:07.774Z,98384.56
2023-01-17T03:26:35.576Z,98373.16
2023-01-17T03:29:03.356Z,98372.09
2023-01-17T03:31:31.096Z,98388.69
2023-01-17T03:33:58.773Z,98385.16
2023-01-17T03:36:26.463Z,98389.56
2023-01-17T03:38:55.603Z,98387.81
2023-01-17T03:41:23.323Z,98378.13
2023-01-17T03:43:51.112Z,98391.31
2023-01-17T03:46:22.714Z,98385.16
2023-01-17T03:48:51.023Z,98393.88
2023-01-17T03:51:18.861Z,98386.81
2023-01-17T03:53:47.338Z,98392.91
2023-01-17T03:56:16.607Z,98401.75
2023-01-17T03:58:44.659Z,98402.63
2023-01-17T04:01:12.672Z,98399.06
2023-01-17T04:03:40.475Z,98403.50
2023-01-17T04:06:10.754Z,98406.13
2023-01-17T04:08:38.443Z,98407.81
2023-01-17T04:11:08.755Z,98408.72
2023-01-17T04:13:39.786Z,98417.53
2023-01-17T04:16:11.395Z,98413.06
2023-01-17T04:18:39.165Z,98422.72
2023-01-17T04:21:07.697Z,98423.56
2023-01-17T04:23:35.620Z,98422.63
2023-01-17T04:26:03.569Z,98433.13
2023-01-17T04:28:31.783Z,98436.66
2023-01-17T04:31:01.407Z,98427.97
2023-01-17T04:33:29.131Z,98437.72
2023-01-17T04:35:57.053Z,98430.69
2023-01-17T04:38:24.886Z,98436.81
2023-01-17T04:40:52.756Z,98435.94
2023-01-17T04:43:20.514Z,98440.28
2023-01-17T04:45:48.275Z,98428.81
2023-01-17T04:48:17.322Z,98430.53
2023-01-17T04:50:45.045Z,98437.50
2023-01-17T04:53:12.708Z,98442.75
2023-01-17T04:55:40.340Z,98453.31
2023-01-17T04:58:08.128Z,98455.97
2023-01-17T05:00:35.801Z,98457.69
2023-01-17T05:03:03.625Z,98462.19
2023-01-17T05:05:35.662Z,98460.47
2023-01-17T05:08:03.355Z,98462.22
2023-01-17T05:10:31.109Z,98470.94
2023-01-17T05:13:00.538Z,98470.13
2023-01-17T05:15:28.562Z,98472.00
2023-01-17T05:17:56.501Z,98478.16
2023-01-17T05:20:25.913Z,98476.50
2023-01-17T05:22:56.432Z,98485.31
2023-01-17T05:25:24.454Z,98483.44
2023-01-17T05:27:52.356Z,98484.28
2023-01-17T05:30:20.514Z,98486.06
2023-01-17T05:32:49.759Z,98483.44
2023-01-17T05:35:19.485Z,98487.91
2023-01-17T05:37:49.088Z,98493.25
2023-01-17T05:40:18.987Z,98497.78
2023-01-17T05:42:47.311Z,98493.50
2023-01-17T05:45:17.021Z,98500.53
2023-01-17T05:47:45.204Z,98498.84
2023-01-17T05:50:13.975Z,98499.75
2023-01-17T05:52:42.123Z,98492.72
2023-01-17T05:55:10.625Z,98507.69
2023-01-17T05:57:39.894Z,98505.06
2023-01-17T06:00:08.980Z,98502.47
2023-01-17T06:02:36.672Z,98511.25
2023-01-17T06:05:04.775Z,98516.53
2023-01-17T06:07:32.911Z,98524.50
2023-01-17T06:10:00.545Z,98520.06
2023-01-17T06:12:28.250Z,98532.41
2023-01-17T06:14:57.974Z,98527.22
2023-01-17T06:17:25.794Z,98524.47
2023-01-17T06:19:53.594Z,98516.56
2023-01-17T06:22:21.330Z,98515.69
2023-01-17T06:24:49.097Z,98523.69
2023-01-17T06:27:16.815Z,98521.03
2023-01-17T06:29:44.498Z,98527.22
2023-01-17T06:32:14.210Z,98523.69
2023-01-17T06:34:42.219Z,98529.84
2023-01-17T06:37:10.034Z,98530.72
2023-01-17T06:39:37.700Z,98533.34
2023-01-17T06:42:05.522Z,98535.97
2023-01-17T06:44:33.125Z,98537.78
2023-01-17T06:47:00.824Z,98549.22
2023-01-17T06:49:29.882Z,98555.50
2023-01-17T06:51:57.513Z,98556.34
2023-01-17T06:54:25.427Z,98558.06
2023-01-17T06:56:53.115Z,98555.41
2023-01-17T06:59:20.852Z,98554.56
2023-01-17T07:01:48.642Z,98563.19
2023-01-17T07:04:16.384Z,98556.22
2023-01-17T07:06:45.426Z,98561.50
2023-01-17T07:09:13.732Z,98557.06
2023-01-17T07:11:41.520Z,98562.25
2023-01-17T07:14:13.590Z,98558.75
2023-01-17T07:16:43.646Z,98560.47
2023-01-17T07:19:11.351Z,98560.41
2023-01-17T07:21:39.126Z,98569.16
2023-01-17T07:24:08.997Z,98570.00
2023-01-17T07:26:37.695Z,98572.63
2023-01-17T07:29:05.795Z,98560.25
2023-01-17T07:31:35.318Z,98563.81
2023-01-17T07:34:03.269Z,98563.88
2023-01-17T07:36:31.113Z,98575.44
2023-01-17T07:38:58.840Z,98575.44
2023-01-17T07:41:27.927Z,98571.81
2023-01-17T07:43:56.502Z,98571.78
2023-01-17T07:46:24.263Z,98573.53
2023-01-17T07:48:52.138Z,98580.53
2023-01-17T07:51:19.921Z,98573.53
2023-01-17T07:53:47.615Z,98579.69
2023-01-17T07:56:15.306Z,98574.41
2023-01-17T07:58:44.310Z,98571.78
2023-01-17T08:01:14.313Z,98582.41
2023-01-17T08:03:42.210Z,98577.22
2023-01-17T08:06:18.654Z,98574.72
2023-01-17T08:08:46.317Z,98575.66
2023-01-17T08:11:14.352Z,98573.94
2023-01-17T08:13:42.118Z,98578.34
2023-01-17T08:16:12.772Z,98581.00
2023-01-17T08:18:41.146Z,98585.31
2023-01-17T08:21:19.167Z,98587.91
2023-01-17T08:23:49.490Z,98586.97
2023-01-17T08:26:21.399Z,98583.41
2023-01-17T08:28:50.255Z,98586.97
2023-01-17T08:31:19.872Z,98590.56
2023-01-17T08:33:47.644Z,98593.22
2023-01-17T08:36:15.325Z,98593.25
2023-01-17T08:38:42.975Z,98595.97
2023-01-17T08:41:10.934Z,98596.00
2023-01-17T08:43:38.582Z,98600.41
2023-01-17T08:46:06.542Z,98602.16
2023-01-17T08:48:35.649Z,98598.56
2023-01-17T08:51:05.839Z,98595.84
2023-01-17T08:53:33.501Z,98597.50
2023-01-17T08:56:01.986Z,98592.13
2023-01-17T08:58:31.844Z,98597.31
2023-01-17T09:01:02.059Z,98596.41
2023-01-17T09:03:30.159Z,98599.91
2023-01-17T09:06:09.060Z,98605.19
2023-01-17T09:08:36.799Z,98606.09
2023-01-17T09:11:05.663Z,98606.09
2023-01-17T09:13:33.383Z,98613.13
2023-01-17T09:16:01.698Z,98619.28
2023-01-17T09:18:30.333Z,98620.13
2023-01-17T09:20:59.242Z,98626.22
2023-01-17T09:23:30.864Z,98618.25
2023-01-17T09:26:01.165Z,98616.38
2023-01-17T09:28:29.380Z,98622.47
2023-01-17T09:30:57.074Z,98615.38
2023-01-17T09:33:25.257Z,98617.94
2023-01-17T09:35:52.949Z,98611.75
2023-01-17T09:38:21.700Z,98616.97
2023-01-17T09:40:50.763Z,98622.16
2023-01-17T09:43:27.448Z,98615.00
2023-01-17T09:45:55.328Z,98610.50
2023-01-17T09:48:31.203Z,98616.63
2023-01-17T09:51:02.105Z,98612.13
2023-01-17T09:53:35.023Z,98621.69
2023-01-17T09:56:10.418Z,98620.84
2023-01-17T09:58:44.583Z,98621.72
2023-01-17T10:01:17.847Z,98620.84
2023-01-17T10:04:06.341Z,98620.84
2023-01-17T10:06:55.962Z,98622.47
2023-01-17T10:09:45.574Z,98628.47
2023-01-17T10:12:24.172Z,98629.16
2023-01-17T10:15:11.164Z,98636.13
2023-01-17T10:17:48.873Z,98630.00
2023-01-17T10:20:44.960Z,98630.06
2023-01-17T10:23:33.237Z,98628.34
2023-01-17T10:26:02.683Z,98631.97
2023-01-17T10:28:41.384Z,98630.38
2023-01-17T10:31:14.130Z,98630.47
2023-01-17T10:33:47.749Z,98630.50
2023-01-17T10:36:20.497Z,98631.38
2023-01-17T10:38:50.787Z,98634.94
2023-01-17T10:41:25.444Z,98634.91
2023-01-17T10:44:04.394Z,98639.28
2023-01-17T10:46:38.313Z,98636.59
2023-01-17T10:49:06.004Z,98637.50
2023-01-17T10:52:00.150Z,98627.72
2023-01-17T10:54:46.899Z,98624.25
2023-01-17T10:57:17.299Z,98624.16
2023-01-17T10:59:46.394Z,98621.41
2023-01-17T11:02:21.217Z,98622.22
2023-01-17T11:04:54.307Z,98625.69
2023-01-17T11:07:24.399Z,98623.00
2023-01-17T11:09:53.801Z,98615.06
2023-01-17T11:12:27.855Z,98612.44
2023-01-17T11:15:02.666Z,98609.78
2023-01-17T11:17:32.150Z,98601.84
2023-01-17T11:20:16.906Z,98613.31
2023-01-17T11:22:49.783Z,98607.13
2023-01-17T11:25:23.278Z,98611.50
2023-01-17T11:27:59.516Z,98612.31
2023-01-17T11:30:29.687Z,98602.59
2023-01-17T11:32:58.582Z,98606.97
2023-01-17T11:35:28.808Z,98597.19
2023-01-17T11:38:06.171Z,98597.97
2023-01-17T11:40:38.691Z,98604.94
2023-01-17T11:43:19.444Z,98603.16
2023-01-17T11:46:05.838Z,98598.75
2023-01-17T11:48:40.388Z,98600.47
2023-01-17T11:51:19.993Z,98603.16
2023-01-17T11:53:49.141Z,98605.88
2023-01-17T11:56:23.445Z,98599.75
2023-01-17T11:58:52.054Z,98593.56
2023-01-17T12:01:37.294Z,98597.16
2023-01-17T12:04:25.120Z,98592.75
2023-01-17T12:07:22.430Z,98591.78
2023-01-17T12:10:00.254Z,98590.91
2023-01-17T12:12:57.481Z,98593.44
2023-01-17T12:15:39.385Z,98588.97
2023-01-17T12:18:34.039Z,98591.72
2023-01-17T12:21:15.584Z,98587.34
2023-01-17T12:23:58.756Z,98586.41
2023-01-17T12:26:35.894Z,98580.16
2023-01-17T12:29:39.023Z,98579.19
2023-01-17T12:32:32.984Z,98576.47
2023-01-17T12:35:09.411Z,98586.00
2023-01-17T12:37:40.011Z,98575.34
2023-01-17T12:40:22.137Z,98570.81
2023-01-17T12:42:54.634Z,98567.16
2023-01-17T12:45:25.463Z,98564.28
2023-01-17T12:47:59.712Z,98561.50
2023-01-17T12:50:33.269Z,98563.13
2023-01-17T12:53:07.543Z,98568.34
2023-01-17T12:55:39.560Z,98570.09
2023-01-17T12:58:13.809Z,98571.78
2023-01-17T13:00:44.988Z,98577.16
2023-01-17T13:03:24.005Z,98571.78
2023-01-17T13:05:54.725Z,98565.63
2023-01-17T13:08:30.047Z,98570.81
2023-01-17T13:11:02.400Z,98571.75
2023-01-17T13:13:31.632Z,98578.75
2023-01-17T13:16:06.132Z,98565.44
2023-01-17T13:18:37.022Z,98571.75
2023-01-17T13:21:28.355Z,98562.75
2023-01-17T13:24:15.166Z,98560.06
2023-01-17T13:26:56.231Z,98561.94
2023-01-17T13:29:37.360Z,98563.81
2023-01-17T13:32:18.544Z,98563.09
2023-01-17T13:35:03.412Z,98567.56
2023-01-17T13:37:53.497Z,98565.06
2023-01-17T13:40:37.392Z,98570.56
2023-01-17T13:43:12.765Z,98575.91
2023-01-17T13:45:40.832Z,98579.41
2023-01-17T13:48:26.395Z,98573.28
2023-01-17T13:50:55.531Z,98577.69
2023-01-17T13:53:59.352Z,98574.22
2023-01-17T13:56:37.864Z,98572.44
2023-01-17T13:59:26.607Z,98571.59
2023-01-17T14:01:55.270Z,98567.19
2023-01-17T14:04:24.443Z,98573.34
2023-01-17T14:07:03.813Z,98568.13
2023-01-17T14:09:42.845Z,98569.94
2023-01-17T14:12:34.345Z,98571.59
2023-01-17T14:15:03.754Z,98578.50
2023-01-17T14:17:51.894Z,98573.94
2023-01-17T14:20:49.020Z,98580.28
2023-01-17T14:23:52.664Z,98581.03
2023-01-17T14:26:46.490Z,98587.03
2023-01-17T14:29:55.632Z,98583.44
2023-01-17T14:32:25.590Z,98580.03
2023-01-17T14:34:54.876Z,98575.56
2023-01-17T14:37:31.224Z,98579.84
2023-01-17T14:39:59.784Z,98580.75
2023-01-17T14:42:31.681Z,98580.75
2023-01-17T14:45:03.183Z,98580.00
2023-01-17T14:47:33.395Z,98584.38
2023-01-17T14:50:13.360Z,98593.28
2023-01-17T14:52:41.069Z,98588.06
2023-01-17T14:55:16.857Z,98593.44
2023-01-17T14:57:54.833Z,98595.28
2023-01-17T15:00:25.177Z,98604.28
2023-01-17T15:02:54.797Z,98601.69
2023-01-17T15:05:25.145Z,98607.84
2023-01-17T15:07:55.738Z,98606.22
2023-01-17T15:10:26.223Z,98616.81
2023-01-17T15:12:57.536Z,98608.91
2023-01-17T15:15:32.003Z,98610.66
2023-01-17T15:18:10.382Z,98604.59
2023-01-17T15:20:38.992Z,98610.78
2023-01-17T15:23:07.374Z,98613.50
2023-01-17T15:25:35.555Z,98615.38
2023-01-17T15:28:06.575Z,98610.09
2023-01-17T15:30:34.334Z,98613.69
2023-01-17T15:33:02.102Z,98612.75
2023-01-17T15:35:29.894Z,98610.22
2023-01-17T15:37:58.216Z,98606.72
2023-01-17T15:40:27.936Z,98611.13
2023-01-17T15:42:59.233Z,98619.16
2023-01-17T15:45:29.957Z,98609.50
2023-01-17T15:47:59.102Z,98616.63
2023-01-17T15:50:30.971Z,98618.41
2023-01-17T15:53:01.443Z,98615.78
2023-01-17T15:55:32.609Z,98617.56
2023-01-17T15:58:00.724Z,98623.75
2023-01-17T16:00:37.807Z,98626.44
2023-01-17T16:03:21.907Z,98628.34
2023-01-17T16:05:50.547Z,98631.03
2023-01-17T16:08:39.481Z,98622.34
2023-01-17T16:11:08.611Z,98625.91
2023-01-17T16:13:39.235Z,98625.91
2023-01-17T16:16:26.751Z,98630.38
2023-01-17T16:19:01.500Z,98632.25
2023-01-17T16:21:30.543Z,98631.38
2023-01-17T16:24:01.569Z,98638.50
2023-01-17T16:26:30.201Z,98648.25
2023-01-17T16:28:58.036Z,98645.75
2023-01-17T16:31:27.093Z,98652.84
2023-01-17T16:33:54.815Z,98649.44
2023-01-17T16:36:22.969Z,98650.38
2023-01-17T16:38:52.455Z,98662.72
2023-01-17T16:41:20.523Z,98654.81
2023-01-17T16:44:00.908Z,98659.25
2023-01-17T16:46:30.776Z,98662.78
2023-01-17T16:49:00.615Z,98663.72
2023-01-17T16:51:28.480Z,98659.38
2023-01-17T16:53:56.182Z,98658.59
2023-01-17T16:56:23.913Z,98656.88
2023-01-17T16:58:53.324Z,98662.22
2023-01-17T17:01:22.651Z,98664.91
2023-01-17T17:03:52.147Z,98667.59
2023-01-17T17:06:19.889Z,98666.78
2023-01-17T17:08:47.627Z,98674.75
2023-01-17T17:11:17.510Z,98681.81
2023-01-17T17:13:46.583Z,98678.38
2023-01-17T17:16:19.316Z,98681.03
2023-01-17T17:18:54.286Z,98677.63
2023-01-17T17:21:23.989Z,98689.91
2023-01-17T17:23:56.785Z,98678.50
2023-01-17T17:26:26.771Z,98687.34
2023-01-17T17:28:55.403Z,98688.25
2023-01-17T17:31:23.372Z,98691.81
2023-01-17T17:33:51.225Z,98692.75
2023-01-17T17:36:18.962Z,98698.03
2023-01-17T17:38:54.271Z,98701.63
2023-01-17T17:41:24.703Z,98699.88
2023-01-17T17:43:53.123Z,98701.66
2023-01-17T17:46:21.781Z,98704.34
2023-01-17T17:48:50.378Z,98702.66
2023-01-17T17:51:26.232Z,98711.47
2023-01-17T17:53:56.493Z,98713.28
2023-01-17T17:56:24.904Z,98714.19
2023-01-17T17:58:52.552Z,98708.09
2023-01-17T18:01:22.752Z,98716.00
2023-01-17T18:03:55.407Z,98721.28
2023-01-17T18:06:23.440Z,98727.47
2023-01-17T18:08:52.254Z,98720.50
2023-01-17T18:11:23.973Z,98722.25
2023-01-17T18:13:53.481Z,98721.38
2023-01-17T18:16:23.550Z,98728.47
2023-01-17T18:18:53.325Z,98721.47
2023-01-17T18:21:25.042Z,98736.44
2023-01-17T18:23:56.713Z,98740.84
2023-01-17T18:26:28.267Z,98741.81
2023-01-17T18:28:57.511Z,98743.53
2023-01-17T18:31:27.139Z,98749.78
2023-01-17T18:33:55.399Z,98748.00
2023-01-17T18:36:24.308Z,98755.91
2023-01-17T18:38:53.514Z,98755.00
2023-01-17T18:41:24.499Z,98758.56
2023-01-17T18:43:55.943Z,98757.72
2023-01-17T18:46:25.769Z,98768.28
2023-01-17T18:48:56.968Z,98761.25
2023-01-17T18:51:25.301Z,98761.28
2023-01-17T18:53:53.991Z,98759.53
2023-01-17T18:56:23.122Z,98765.69
2023-01-17T18:58:53.073Z,98767.50
2023-01-17T19:01:23.216Z,98764.03
2023-01-17T19:03:55.525Z,98764.03
2023-01-17T19:06:27.892Z,98768.44
2023-01-17T19:08:59.487Z,98778.06
2023-01-17T19:11:28.014Z,98777.22
2023-01-17T19:13:57.927Z,98778.09
2023-01-17T19:16:35.596Z,98788.66
2023-01-17T19:19:06.267Z,98784.28
2023-01-17T19:21:34.875Z,98788.72
2023-01-17T19:24:02.644Z,98792.28
2023-01-17T19:26:30.584Z,98791.41
2023-01-17T19:29:00.278Z,98795.78
2023-01-17T19:31:29.741Z,98793.16
2023-01-17T19:33:59.287Z,98789.66
2023-01-17T19:36:28.911Z,98796.72
2023-01-17T19:39:04.493Z,98801.13
2023-01-17T19:41:36.083Z,98808.13
2023-01-17T19:44:07.491Z,98809.03
2023-01-17T19:46:36.380Z,98802.88
2023-01-17T19:49:05.532Z,98809.88
2023-01-17T19:51:33.259Z,98803.75
2023-01-17T19:54:01.787Z,98809.94
2023-01-17T19:56:30.235Z,98809.94
2023-01-17T19:59:01.956Z,98801.19
2023-01-17T20:01:33.840Z,98800.28
2023-01-17T20:04:06.184Z,98803.81
2023-01-17T20:06:35.736Z,98801.16
2023-01-17T20:09:04.501Z,98809.97
2023-01-17T20:11:32.254Z,98813.47
2023-01-17T20:14:00.588Z,98816.97
2023-01-17T20:16:29.933Z,98816.13
2023-01-17T20:19:02.284Z,98820.50
2023-01-17T20:21:31.911Z,98828.41
2023-01-17T20:24:03.072Z,98824.03
2023-01-17T20:26:35.561Z,98824.94
2023-01-17T20:29:07.288Z,98823.19
2023-01-17T20:31:38.118Z,98820.56
2023-01-17T20:34:08.493Z,98828.44
2023-01-17T20:36:36.985Z,98836.34
2023-01-17T20:39:05.300Z,98836.34
2023-01-17T20:41:34.680Z,98840.75
2023-01-17T20:44:04.468Z,98846.88
2023-01-17T20:46:35.673Z,98850.41
2023-01-17T20:49:05.908Z,98852.16
2023-01-17T20:51:37.578Z,98864.44
2023-01-17T20:54:06.934Z,98860.94
2023-01-17T20:56:37.117Z,98861.81
2023-01-17T20:59:06.277Z,98861.81
2023-01-17T21:01:34.534Z,98868.81
2023-01-17T21:04:03.216Z,98872.31
2023-01-17T21:06:31.098Z,98870.59
2023-01-17T21:09:00.854Z,98865.31
2023-01-17T21:11:28.731Z,98873.22
2023-01-17T21:13:57.282Z,98879.34
2023-01-17T21:16:28.023Z,98875.81
2023-01-17T21:18:55.893Z,98880.22
2023-01-17T21:21:26.079Z,98872.34
2023-01-17T21:23:55.456Z,98886.34
2023-01-17T21:26:26.678Z,98877.63
2023-01-17T21:28:55.108Z,98887.25
2023-01-17T21:31:25.741Z,98878.50
2023-01-17T21:33:55.716Z,98881.97
2023-01-17T21:36:25.998Z,98873.22
2023-01-17T21:38:56.945Z,98879.34
2023-01-17T21:41:28.488Z,98876.72
2023-01-17T21:43:57.760Z,98882.00
2023-01-17T21:46:26.472Z,98883.72
2023-01-17T21:48:56.676Z,98881.09
2023-01-17T21:51:24.466Z,98882.00
2023-01-17T21:53:52.242Z,98882.88
2023-01-17T21:56:42.696Z,98894.25
2023-01-17T21:59:11.737Z,98892.50
2023-01-17T22:01:39.513Z,98898.63
2023-01-17T22:04:07.344Z,98897.75
2023-01-17T22:06:35.559Z,98893.38
2023-01-17T22:09:04.299Z,98903.88
2023-01-17T22:11:32.597Z,98903.88
2023-01-17T22:14:03.251Z,98901.25
2023-01-17T22:16:32.596Z,98897.75
2023-01-17T22:19:00.354Z,98911.78
2023-01-17T22:21:29.451Z,98910.00
2023-01-17T22:23:58.286Z,98906.53
2023-01-17T22:26:27.843Z,98911.78
2023-01-17T22:28:56.096Z,98901.22
2023-01-17T22:31:26.801Z,98904.75
2023-01-17T22:33:58.418Z,98905.63
2023-01-17T22:36:26.522Z,98913.50
2023-01-17T22:38:54.739Z,98912.66
2023-01-17T22:41:24.980Z,98907.34
2023-01-17T22:43:54.182Z,98902.09
2023-01-17T22:46:24.867Z,98909.13
2023-01-17T22:48:53.316Z,98902.97
2023-01-17T22:51:24.481Z,98902.97
2023-01-17T22:53:54.028Z,98908.22
2023-01-17T22:56:23.283Z,98907.34
2023-01-17T22:58:51.224Z,98906.44
2023-01-17T23:01:20.568Z,98902.97
2023-01-17T23:03:52.677Z,98898.56
2023-01-17T23:06:23.945Z,98898.56
2023-01-17T23:08:54.314Z,98902.94
2023-01-17T23:11:40.643Z,98897.69
2023-01-17T23:14:10.867Z,98903.81
2023-01-17T23:16:56.328Z,98907.31
2023-01-17T23:19:24.808Z,98915.19
2023-01-17T23:22:13.589Z,98916.94
2023-01-17T23:24:44.125Z,98919.56
2023-01-17T23:27:31.606Z,98914.31
2023-01-17T23:29:59.776Z,98915.19
2023-01-17T23:32:36.226Z,98915.16
2023-01-17T23:35:04.165Z,98919.53
2023-01-17T23:37:50.756Z,98922.16
2023-01-17T23:40:19.012Z,98919.53
2023-01-17T23:43:04.422Z,98918.66
2023-01-17T23:45:35.681Z,98918.66
2023-01-17T23:48:05.079Z,98919.50
2023-01-17T23:50:33.641Z,98918.59
2023-01-17T23:53:06.841Z,98929.13
2023-01-17T23:55:36.326Z,98922.13
2023-01-17T23:58:04.431Z,98930.00
